Terminal Aerodrome Forecast
Issued by NWS Caribou, ME

Home | Current Version | Previous Version | Text Only | Print | Product List | Glossary On
Versions: 1 2 3 4 5 6 7 8 9 10 11 12 13 14 15 16 17 18 19 20 21
261
FTUS41 KCAR 272320
TAFCAR
TAF
KCAR 272320Z 2800/2824 13007KT 1SM -SN BR OVC022
      TEMPO 2800/2804 1/2SM -SN FZFG VV009
     FM280400 12006KT 2SM BR OVC025
     FM281300 13007KT P6SM OVC015
     FM281700 14007KT 3SM -RASN OVC012=

USA.gov is the U.S. government's official web portal to all federal, state and local government web resources and services.